Terminal Aerodrome Forecast
Issued by NWS Raleigh/Durham, NC

Home | Current Version | Previous Version | Text Only | Print | Product List | Glossary On
Versions: 1 2 3 4 5 6 7 8 9 10 11 12 13 14 15 16 17 18 19 20 21 22 23 24 25 26 27 28 29 30 31 32 33 34 35 36 37 38 39 40 41 42 43 44 45 46
000
FTUS42 KRAH 231830 AAA
TAFFAY
TAF AMD
KFAY 231830Z 2319/2418 21008KT P6SM VCTS BKN045CB BKN150
      TEMPO 2319/2322 VRB18G30KT 2SM SHRA SCT020 OVC035
     FM232300 VRB03KT P6SM VCSH SCT030 BKN060
     FM240200 00000KT P6SM BKN130
     FM241000 VRB03KT P6SM BKN007
     FM241300 05005KT P6SM BKN090
     FM241500 06008G15KT P6SM SCT200=

USA.gov is the U.S. government's official web portal to all federal, state and local government web resources and services.